WAT4970 ENAL-ENBR
Flight info
| Callsign | WAT4970 |
|---|---|
| Flight time | 0h 36m |
| Altitude | 26000 |
| Route | TUTOP DCT NIDGI |
| Aircraft | E195/M-SDE3GILORVW/S |
Departure
| Time | 2026-04-28 14:49 |
|---|---|
| Airport | Ålesund Airport (ENAL) |
Arrival
| Time | 2026-04-28 15:26 |
|---|---|
| Airport | Bergen Airport, Flesland (ENBR) |
| Time | Latitude | Longitude | Altitude | Speed | Heading |
|---|---|---|---|---|---|
| 2026-04-28 14:20 | 62.55875 | 6.11312 | 70 ft | 0 kts | 155° |
| 2026-04-28 14:41 | 62.55877 | 6.11311 | 70 ft | 0 kts | 155° |
| 2026-04-28 14:42 | 62.55887 | 6.11300 | 70 ft | 2 kts | 155° |
| 2026-04-28 14:42 | 62.55900 | 6.11287 | 69 ft | 2 kts | 155° |
| 2026-04-28 14:42 | 62.55909 | 6.11278 | 69 ft | 1 kts | 152° |
| 2026-04-28 14:42 | 62.55918 | 6.11254 | 69 ft | 2 kts | 96° |
| 2026-04-28 14:43 | 62.55916 | 6.11230 | 69 ft | 1 kts | 65° |
| 2026-04-28 14:43 | 62.55915 | 6.11228 | 69 ft | 0 kts | 65° |
| 2026-04-28 14:45 | 62.55916 | 6.11233 | 69 ft | 1 kts | 65° |
| 2026-04-28 14:46 | 62.55934 | 6.11317 | 70 ft | 6 kts | 65° |
| 2026-04-28 14:46 | 62.55957 | 6.11432 | 71 ft | 10 kts | 65° |
| 2026-04-28 14:46 | 62.56009 | 6.11583 | 69 ft | 14 kts | 26° |
| 2026-04-28 14:46 | 62.56079 | 6.11771 | 64 ft | 18 kts | 63° |
| 2026-04-28 14:47 | 62.56127 | 6.11973 | 58 ft | 10 kts | 61° |
| 2026-04-28 14:47 | 62.56191 | 6.12111 | 52 ft | 16 kts | 25° |
| 2026-04-28 14:47 | 62.56260 | 6.12157 | 48 ft | 18 kts | 27° |
| 2026-04-28 14:47 | 62.56338 | 6.12438 | 33 ft | 26 kts | 63° |
| 2026-04-28 14:48 | 62.56426 | 6.12834 | 15 ft | 28 kts | 77° |
| 2026-04-28 14:48 | 62.56460 | 6.13056 | 9 ft | 10 kts | 5° |
| 2026-04-28 14:48 | 62.56467 | 6.12992 | 11 ft | 3 kts | 248° |
| 2026-04-28 14:48 | 62.56461 | 6.12958 | 12 ft | 3 kts | 246° |
| 2026-04-28 14:49 | 62.56322 | 6.12325 | 38 ft | 89 kts | 245° |
| 2026-04-28 14:49 | 62.55951 | 6.10624 | 98 ft | 157 kts | 245° |
| 2026-04-28 14:49 | 62.55450 | 6.08313 | 781 ft | 178 kts | 245° |
| 2026-04-28 14:49 | 62.54940 | 6.05988 | 1833 ft | 176 kts | 246° |
| 2026-04-28 14:50 | 62.54390 | 6.03461 | 2489 ft | 194 kts | 245° |
| 2026-04-28 14:50 | 62.53783 | 6.00758 | 3208 ft | 208 kts | 244° |
| 2026-04-28 14:50 | 62.53138 | 5.97856 | 3936 ft | 224 kts | 246° |
| 2026-04-28 14:50 | 62.52410 | 5.94638 | 4447 ft | 253 kts | 245° |
| 2026-04-28 14:51 | 62.51644 | 5.91085 | 5262 ft | 267 kts | 246° |
| 2026-04-28 14:51 | 62.50868 | 5.87533 | 6380 ft | 268 kts | 248° |
| 2026-04-28 14:51 | 62.49916 | 5.84051 | 7392 ft | 276 kts | 228° |
| 2026-04-28 14:51 | 62.48239 | 5.81904 | 8274 ft | 290 kts | 202° |
| 2026-04-28 14:52 | 62.46327 | 5.80471 | 9098 ft | 298 kts | 202° |
| 2026-04-28 14:52 | 62.44360 | 5.78987 | 9868 ft | 307 kts | 202° |
| 2026-04-28 14:52 | 62.42335 | 5.77453 | 10656 ft | 315 kts | 202° |
| 2026-04-28 14:52 | 62.40250 | 5.75868 | 11342 ft | 325 kts | 202° |
| 2026-04-28 14:53 | 62.38064 | 5.74207 | 11883 ft | 341 kts | 202° |
| 2026-04-28 14:53 | 62.35786 | 5.72479 | 12303 ft | 360 kts | 202° |
| 2026-04-28 14:53 | 62.33385 | 5.70662 | 12772 ft | 376 kts | 202° |
| 2026-04-28 14:53 | 62.30886 | 5.68773 | 13424 ft | 385 kts | 202° |
| 2026-04-28 14:54 | 62.28377 | 5.66881 | 14210 ft | 390 kts | 202° |
| 2026-04-28 14:54 | 62.25806 | 5.64945 | 15018 ft | 394 kts | 203° |
| 2026-04-28 14:54 | 62.23230 | 5.63007 | 15805 ft | 398 kts | 203° |
| 2026-04-28 14:54 | 62.20617 | 5.61046 | 16526 ft | 404 kts | 203° |
| 2026-04-28 14:55 | 62.17927 | 5.59017 | 17207 ft | 411 kts | 203° |
| 2026-04-28 14:55 | 62.15250 | 5.56963 | 17917 ft | 416 kts | 204° |
| 2026-04-28 14:55 | 62.12544 | 5.54891 | 18632 ft | 421 kts | 203° |
| 2026-04-28 14:55 | 62.09768 | 5.52769 | 19352 ft | 425 kts | 203° |
| 2026-04-28 14:56 | 62.06968 | 5.50635 | 20091 ft | 429 kts | 204° |
| 2026-04-28 14:56 | 62.04171 | 5.48504 | 20811 ft | 433 kts | 204° |
| 2026-04-28 14:56 | 62.01347 | 5.46358 | 21495 ft | 437 kts | 204° |
| 2026-04-28 14:56 | 61.98432 | 5.44225 | 22205 ft | 441 kts | 202° |
| 2026-04-28 14:57 | 61.95530 | 5.42176 | 22873 ft | 445 kts | 202° |
| 2026-04-28 14:57 | 61.93578 | 5.40800 | 23310 ft | 447 kts | 202° |
| 2026-04-28 14:57 | 61.89593 | 5.37995 | 24106 ft | 454 kts | 202° |
| 2026-04-28 14:57 | 61.86581 | 5.35881 | 24692 ft | 458 kts | 202° |
| 2026-04-28 14:58 | 61.83600 | 5.33792 | 25262 ft | 463 kts | 201° |
| 2026-04-28 14:58 | 61.80532 | 5.31647 | 25845 ft | 467 kts | 201° |
| 2026-04-28 14:58 | 61.77436 | 5.29489 | 26350 ft | 465 kts | 201° |
| 2026-04-28 14:58 | 61.74330 | 5.27326 | 26410 ft | 469 kts | 201° |
| 2026-04-28 14:59 | 61.71241 | 5.25180 | 26435 ft | 471 kts | 201° |
| 2026-04-28 14:59 | 61.68134 | 5.23026 | 26453 ft | 472 kts | 201° |
| 2026-04-28 14:59 | 61.65047 | 5.20891 | 26454 ft | 471 kts | 201° |
| 2026-04-28 14:59 | 61.61901 | 5.18720 | 26457 ft | 472 kts | 201° |
| 2026-04-28 15:00 | 61.58775 | 5.16567 | 26459 ft | 471 kts | 201° |
| 2026-04-28 15:00 | 61.55658 | 5.14424 | 26457 ft | 472 kts | 201° |
| 2026-04-28 15:00 | 61.52593 | 5.12322 | 26460 ft | 472 kts | 201° |
| 2026-04-28 15:00 | 61.49420 | 5.10149 | 26463 ft | 472 kts | 200° |
| 2026-04-28 15:01 | 61.46333 | 5.08041 | 26463 ft | 473 kts | 201° |
| 2026-04-28 15:01 | 61.43197 | 5.05904 | 26465 ft | 472 kts | 201° |
| 2026-04-28 15:01 | 61.40092 | 5.03792 | 26463 ft | 473 kts | 201° |
| 2026-04-28 15:01 | 61.36972 | 5.01675 | 26464 ft | 472 kts | 201° |
| 2026-04-28 15:02 | 61.33884 | 4.99583 | 26456 ft | 467 kts | 200° |
| 2026-04-28 15:02 | 61.30809 | 4.97506 | 26453 ft | 457 kts | 200° |
| 2026-04-28 15:02 | 61.27811 | 4.95484 | 26467 ft | 456 kts | 201° |
| 2026-04-28 15:02 | 61.24771 | 4.93436 | 26472 ft | 457 kts | 200° |
| 2026-04-28 15:03 | 61.21781 | 4.91428 | 26479 ft | 457 kts | 200° |
| 2026-04-28 15:03 | 61.18739 | 4.89388 | 26478 ft | 456 kts | 200° |
| 2026-04-28 15:03 | 61.15797 | 4.87421 | 26217 ft | 443 kts | 200° |
| 2026-04-28 15:03 | 61.12895 | 4.85482 | 25511 ft | 441 kts | 200° |
| 2026-04-28 15:04 | 61.09960 | 4.83526 | 24681 ft | 441 kts | 200° |
| 2026-04-28 15:04 | 61.07071 | 4.81636 | 23912 ft | 440 kts | 197° |
| 2026-04-28 15:04 | 61.04055 | 4.80889 | 23216 ft | 438 kts | 182° |
| 2026-04-28 15:04 | 61.01003 | 4.80674 | 22583 ft | 433 kts | 182° |
| 2026-04-28 15:05 | 60.98019 | 4.80488 | 21957 ft | 428 kts | 182° |
| 2026-04-28 15:05 | 60.95063 | 4.80310 | 21319 ft | 425 kts | 182° |
| 2026-04-28 15:05 | 60.92125 | 4.80136 | 20668 ft | 421 kts | 182° |
| 2026-04-28 15:05 | 60.89276 | 4.79967 | 20039 ft | 418 kts | 181° |
| 2026-04-28 15:06 | 60.86340 | 4.79793 | 19907 ft | 416 kts | 182° |
| 2026-04-28 15:06 | 60.83452 | 4.79624 | 19933 ft | 419 kts | 181° |
| 2026-04-28 15:06 | 60.80550 | 4.79453 | 19928 ft | 418 kts | 181° |
| 2026-04-28 15:06 | 60.77637 | 4.79282 | 19147 ft | 430 kts | 181° |
| 2026-04-28 15:07 | 60.74676 | 4.79108 | 18677 ft | 419 kts | 181° |
| 2026-04-28 15:07 | 60.71826 | 4.78942 | 18212 ft | 410 kts | 181° |
| 2026-04-28 15:07 | 60.68969 | 4.78775 | 17758 ft | 401 kts | 181° |
| 2026-04-28 15:07 | 60.66214 | 4.78615 | 17334 ft | 398 kts | 181° |
| 2026-04-28 15:08 | 60.63477 | 4.78455 | 16899 ft | 397 kts | 181° |
| 2026-04-28 15:08 | 60.60721 | 4.78296 | 16463 ft | 395 kts | 181° |
| 2026-04-28 15:08 | 60.57991 | 4.78135 | 16025 ft | 393 kts | 181° |
| 2026-04-28 15:08 | 60.55264 | 4.77979 | 15592 ft | 390 kts | 181° |
| 2026-04-28 15:09 | 60.52572 | 4.77823 | 15155 ft | 387 kts | 181° |
| 2026-04-28 15:09 | 60.49888 | 4.77672 | 14741 ft | 385 kts | 181° |
| 2026-04-28 15:09 | 60.47230 | 4.77517 | 14313 ft | 382 kts | 181° |
| 2026-04-28 15:09 | 60.45470 | 4.77416 | 14023 ft | 380 kts | 181° |
| 2026-04-28 15:10 | 60.42001 | 4.77431 | 13482 ft | 374 kts | 174° |
| 2026-04-28 15:10 | 60.39389 | 4.77904 | 13086 ft | 373 kts | 173° |
| 2026-04-28 15:10 | 60.36824 | 4.78368 | 12673 ft | 368 kts | 174° |
| 2026-04-28 15:10 | 60.34293 | 4.78824 | 12249 ft | 364 kts | 174° |
| 2026-04-28 15:11 | 60.31824 | 4.79267 | 11850 ft | 356 kts | 174° |
| 2026-04-28 15:11 | 60.29381 | 4.79705 | 11500 ft | 348 kts | 174° |
| 2026-04-28 15:11 | 60.27025 | 4.80126 | 11120 ft | 341 kts | 174° |
| 2026-04-28 15:11 | 60.24678 | 4.80546 | 10731 ft | 333 kts | 174° |
| 2026-04-28 15:12 | 60.22392 | 4.80954 | 10361 ft | 326 kts | 174° |
| 2026-04-28 15:12 | 60.20143 | 4.81354 | 10003 ft | 319 kts | 174° |
| 2026-04-28 15:12 | 60.17959 | 4.81743 | 9666 ft | 313 kts | 174° |
| 2026-04-28 15:12 | 60.15814 | 4.82123 | 9320 ft | 307 kts | 174° |
| 2026-04-28 15:13 | 60.13725 | 4.82497 | 8985 ft | 302 kts | 174° |
| 2026-04-28 15:13 | 60.11634 | 4.82867 | 8638 ft | 297 kts | 175° |
| 2026-04-28 15:13 | 60.09630 | 4.83071 | 8319 ft | 282 kts | 180° |
| 2026-04-28 15:13 | 60.07746 | 4.83056 | 8468 ft | 266 kts | 180° |
| 2026-04-28 15:14 | 60.05920 | 4.83041 | 8462 ft | 265 kts | 180° |
| 2026-04-28 15:14 | 60.04076 | 4.83485 | 8469 ft | 267 kts | 160° |
| 2026-04-28 15:14 | 60.02324 | 4.84709 | 8493 ft | 267 kts | 159° |
| 2026-04-28 15:14 | 60.00584 | 4.85949 | 8473 ft | 268 kts | 158° |
| 2026-04-28 15:15 | 59.98886 | 4.87552 | 8486 ft | 265 kts | 139° |
| 2026-04-28 15:15 | 59.97944 | 4.89055 | 8496 ft | 264 kts | 137° |
| 2026-04-28 15:15 | 59.96049 | 4.92173 | 8470 ft | 262 kts | 137° |
| 2026-04-28 15:15 | 59.94722 | 4.94643 | 8447 ft | 259 kts | 120° |
| 2026-04-28 15:16 | 59.93791 | 4.97649 | 8494 ft | 257 kts | 116° |
| 2026-04-28 15:16 | 59.92883 | 5.00711 | 8460 ft | 256 kts | 116° |
| 2026-04-28 15:16 | 59.92004 | 5.03819 | 8446 ft | 254 kts | 105° |
| 2026-04-28 15:16 | 59.91630 | 5.07158 | 8444 ft | 249 kts | 94° |
| 2026-04-28 15:17 | 59.91353 | 5.10600 | 8205 ft | 250 kts | 91° |
| 2026-04-28 15:17 | 59.91629 | 5.13857 | 7968 ft | 234 kts | 53° |
| 2026-04-28 15:17 | 59.92810 | 5.15896 | 7674 ft | 230 kts | 18° |
| 2026-04-28 15:17 | 59.94382 | 5.16396 | 7238 ft | 229 kts | 2° |
| 2026-04-28 15:18 | 59.95961 | 5.16508 | 6906 ft | 227 kts | 0° |
| 2026-04-28 15:18 | 59.97522 | 5.16508 | 6631 ft | 222 kts | 359° |
| 2026-04-28 15:18 | 59.99049 | 5.16449 | 6379 ft | 219 kts | 358° |
| 2026-04-28 15:18 | 60.00583 | 5.16357 | 6135 ft | 218 kts | 358° |
| 2026-04-28 15:19 | 60.02100 | 5.16248 | 5899 ft | 219 kts | 358° |
| 2026-04-28 15:19 | 60.03623 | 5.16129 | 5676 ft | 219 kts | 357° |
| 2026-04-28 15:19 | 60.05168 | 5.16003 | 5412 ft | 218 kts | 357° |
| 2026-04-28 15:19 | 60.06655 | 5.16037 | 5157 ft | 217 kts | 14° |
| 2026-04-28 15:20 | 60.07885 | 5.17768 | 4927 ft | 220 kts | 52° |
| 2026-04-28 15:20 | 60.08674 | 5.20371 | 4666 ft | 218 kts | 56° |
| 2026-04-28 15:20 | 60.09417 | 5.22945 | 4423 ft | 214 kts | 56° |
| 2026-04-28 15:20 | 60.10157 | 5.25522 | 4162 ft | 210 kts | 53° |
| 2026-04-28 15:21 | 60.11225 | 5.27164 | 4011 ft | 190 kts | 11° |
| 2026-04-28 15:21 | 60.12511 | 5.27156 | 3760 ft | 184 kts | 354° |
| 2026-04-28 15:21 | 60.13767 | 5.26847 | 3484 ft | 181 kts | 353° |
| 2026-04-28 15:21 | 60.15005 | 5.26502 | 3230 ft | 178 kts | 352° |
| 2026-04-28 15:22 | 60.16221 | 5.26137 | 2968 ft | 175 kts | 352° |
| 2026-04-28 15:22 | 60.17488 | 5.25740 | 2290 ft | 182 kts | 351° |
| 2026-04-28 15:22 | 60.18636 | 5.25369 | 2143 ft | 155 kts | 351° |
| 2026-04-28 15:22 | 60.19635 | 5.25036 | 1922 ft | 135 kts | 350° |
| 2026-04-28 15:23 | 60.20513 | 5.24731 | 1688 ft | 119 kts | 350° |
| 2026-04-28 15:23 | 60.21304 | 5.24511 | 1520 ft | 116 kts | 354° |
| 2026-04-28 15:23 | 60.22105 | 5.24280 | 1390 ft | 116 kts | 349° |
| 2026-04-28 15:23 | 60.22899 | 5.23963 | 1268 ft | 117 kts | 348° |
| 2026-04-28 15:24 | 60.23711 | 5.23694 | 1115 ft | 118 kts | 350° |
| 2026-04-28 15:24 | 60.24525 | 5.23449 | 954 ft | 118 kts | 350° |
| 2026-04-28 15:24 | 60.25338 | 5.23161 | 780 ft | 117 kts | 349° |
| 2026-04-28 15:24 | 60.26144 | 5.22874 | 615 ft | 117 kts | 348° |
| 2026-04-28 15:25 | 60.26944 | 5.22600 | 460 ft | 117 kts | 350° |
| 2026-04-28 15:25 | 60.27752 | 5.22337 | 299 ft | 117 kts | 349° |
| 2026-04-28 15:25 | 60.28554 | 5.22078 | 157 ft | 115 kts | 348° |
| 2026-04-28 15:25 | 60.29180 | 5.21866 | 156 ft | 62 kts | 350° |
| 2026-04-28 15:26 | 60.29513 | 5.21755 | 143 ft | 44 kts | 352° |
| 2026-04-28 15:26 | 60.29678 | 5.21723 | 141 ft | 11 kts | 24° |
| 2026-04-28 15:26 | 60.29706 | 5.21807 | 143 ft | 4 kts | 77° |
| 2026-04-28 15:26 | 60.29710 | 5.21853 | 144 ft | 2 kts | 80° |
| 2026-04-28 15:27 | 60.29711 | 5.21872 | 145 ft | 0 kts | 79° |
| 2026-04-28 15:27 | 60.29711 | 5.21873 | 145 ft | 0 kts | 79° |
| 2026-04-28 15:27 | 60.29712 | 5.21878 | 145 ft | 0 kts | 79° |
| 2026-04-28 15:27 | 60.29713 | 5.21890 | 145 ft | 0 kts | 78° |
| 2026-04-28 15:28 | 60.29713 | 5.21895 | 145 ft | 0 kts | 79° |
| 2026-04-28 15:28 | 60.29714 | 5.21905 | 145 ft | 0 kts | 79° |
| 2026-04-28 15:28 | 60.29717 | 5.21937 | 146 ft | 3 kts | 81° |
| 2026-04-28 15:28 | 60.29716 | 5.21964 | 147 ft | 0 kts | 102° |
| 2026-04-28 15:29 | 60.29715 | 5.21972 | 147 ft | 8 kts | 109° |
| 2026-04-28 15:29 | 60.29620 | 5.22042 | 148 ft | 15 kts | 169° |
| 2026-04-28 15:29 | 60.29516 | 5.22075 | 151 ft | 14 kts | 169° |
| 2026-04-28 15:29 | 60.29418 | 5.22108 | 154 ft | 14 kts | 171° |
| 2026-04-28 15:30 | 60.29325 | 5.22140 | 156 ft | 13 kts | 170° |
| 2026-04-28 15:30 | 60.29237 | 5.22169 | 158 ft | 12 kts | 171° |
| 2026-04-28 15:30 | 60.29156 | 5.22196 | 161 ft | 11 kts | 169° |
| 2026-04-28 15:30 | 60.29079 | 5.22221 | 163 ft | 11 kts | 172° |
| 2026-04-28 15:31 | 60.29005 | 5.22246 | 165 ft | 10 kts | 170° |
| 2026-04-28 15:31 | 60.28933 | 5.22269 | 165 ft | 10 kts | 171° |
| 2026-04-28 15:31 | 60.28855 | 5.22298 | 166 ft | 11 kts | 169° |
| 2026-04-28 15:31 | 60.28768 | 5.22327 | 165 ft | 13 kts | 170° |
| 2026-04-28 15:32 | 60.28702 | 5.22351 | 164 ft | 5 kts | 161° |
| 2026-04-28 15:32 | 60.28683 | 5.22386 | 164 ft | 5 kts | 111° |
| 2026-04-28 15:32 | 60.28680 | 5.22403 | 165 ft | 0 kts | 102° |
| 2026-04-28 15:32 | 60.28680 | 5.22404 | 165 ft | 0 kts | 99° |
| 2026-04-28 15:33 | 60.28706 | 5.22558 | 167 ft | 14 kts | 76° |
| 2026-04-28 15:33 | 60.28728 | 5.22708 | 170 ft | 7 kts | 53° |
| 2026-04-28 15:33 | 60.28751 | 5.22750 | 172 ft | 2 kts | 36° |
| 2026-04-28 15:33 | 60.28758 | 5.22762 | 172 ft | 0 kts | 48° |
| 2026-04-28 15:34 | 60.28763 | 5.22779 | 172 ft | 2 kts | 65° |
| 2026-04-28 15:34 | 60.28768 | 5.22806 | 173 ft | 0 kts | 73° |
| 2026-04-28 15:34 | 60.28770 | 5.22824 | 174 ft | 3 kts | 75° |
| 2026-04-28 15:34 | 60.28773 | 5.22855 | 175 ft | 0 kts | 78° |
| 2026-04-28 15:35 | 60.28774 | 5.22862 | 175 ft | 1 kts | 78° |
| 2026-04-28 15:35 | 60.28776 | 5.22882 | 176 ft | 0 kts | 79° |
| 2026-04-28 15:37 | 60.28775 | 5.22876 | 176 ft | 0 kts | 79° |
| 2026-04-28 15:37 | 60.28775 | 5.22872 | 176 ft | 0 kts | 79° |